createdAt,value
2022-11-17T00:00:27.427Z,8.97
2022-11-17T00:01:29.046Z,8.99
2022-11-17T00:02:30.644Z,9.02
2022-11-17T00:03:32.441Z,8.99
2022-11-17T00:04:34.154Z,9.00
2022-11-17T00:05:35.982Z,9.00
2022-11-17T00:06:37.668Z,8.96
2022-11-17T00:07:39.255Z,8.96
2022-11-17T00:08:40.807Z,8.93
2022-11-17T00:09:42.356Z,8.92
2022-11-17T00:10:43.893Z,8.87
2022-11-17T00:12:04.266Z,8.90
2022-11-17T00:13:24.298Z,8.86
2022-11-17T00:14:36.495Z,8.87
2022-11-17T00:15:38.056Z,8.87
2022-11-17T00:16:39.597Z,8.89
2022-11-17T00:17:41.221Z,8.89
2022-11-17T00:19:01.509Z,8.90
2022-11-17T00:20:21.650Z,8.86
2022-11-17T00:21:23.875Z,8.85
2022-11-17T00:22:25.742Z,8.83
2022-11-17T00:23:47.332Z,8.82
2022-11-17T00:24:49.228Z,8.73
2022-11-17T00:25:50.804Z,8.76
2022-11-17T00:27:04.484Z,8.77
2022-11-17T00:28:06.021Z,8.75
2022-11-17T00:29:07.646Z,8.76
2022-11-17T00:30:09.532Z,8.76
2022-11-17T00:31:30.982Z,8.73
2022-11-17T00:32:50.923Z,8.73
2022-11-17T00:34:07.654Z,8.75
2022-11-17T00:35:09.301Z,8.77
2022-11-17T00:36:10.887Z,8.75
2022-11-17T00:37:12.536Z,8.76
2022-11-17T00:38:17.429Z,8.79
2022-11-17T00:39:21.107Z,8.82
2022-11-17T00:40:22.653Z,8.80
2022-11-17T00:41:24.259Z,8.79
2022-11-17T00:42:25.870Z,8.83
2022-11-17T00:43:27.429Z,8.82
2022-11-17T00:44:29.326Z,8.76
2022-11-17T00:45:30.881Z,8.79
2022-11-17T00:46:32.767Z,8.75
2022-11-17T00:47:36.032Z,8.72
2022-11-17T00:48:37.656Z,8.72
2022-11-17T00:49:39.236Z,8.71
2022-11-17T00:50:40.796Z,8.76
2022-11-17T00:51:42.348Z,8.76
2022-11-17T00:52:43.909Z,8.80
2022-11-17T00:53:45.823Z,8.79
2022-11-17T00:54:47.373Z,8.80
2022-11-17T00:55:48.980Z,8.80
2022-11-17T00:56:51.239Z,8.83
2022-11-17T00:57:53.094Z,8.83
2022-11-17T00:58:54.740Z,8.82
2022-11-17T00:59:56.859Z,8.87
2022-11-17T01:00:58.412Z,8.86
2022-11-17T01:02:00.014Z,8.86
2022-11-17T01:03:01.612Z,8.85
2022-11-17T01:04:03.783Z,8.87
2022-11-17T01:05:06.224Z,8.89
2022-11-17T01:06:10.075Z,8.83
2022-11-17T01:07:11.659Z,8.85
2022-11-17T01:08:13.199Z,8.89
2022-11-17T01:09:22.085Z,8.85
2022-11-17T01:10:23.695Z,8.86
2022-11-17T01:11:25.242Z,8.86
2022-11-17T01:12:26.883Z,8.89
2022-11-17T01:13:28.428Z,8.86
2022-11-17T01:14:30.259Z,8.85
2022-11-17T01:15:31.801Z,8.83
2022-11-17T01:16:33.446Z,8.76
2022-11-17T01:17:35.064Z,8.80
2022-11-17T01:18:36.730Z,8.83
2022-11-17T01:19:38.275Z,8.80
2022-11-17T01:20:39.822Z,8.82
2022-11-17T01:21:41.539Z,8.83
2022-11-17T01:22:43.082Z,8.77
2022-11-17T01:23:45.328Z,8.80
2022-11-17T01:24:46.856Z,8.76
2022-11-17T01:25:48.463Z,8.82
2022-11-17T01:26:51.884Z,8.75
2022-11-17T01:27:53.500Z,8.77
2022-11-17T01:28:55.190Z,8.82
2022-11-17T01:29:56.763Z,8.80
2022-11-17T01:31:02.236Z,8.76
2022-11-17T01:32:03.805Z,8.79
2022-11-17T01:33:05.429Z,8.80
2022-11-17T01:34:07.343Z,8.76
2022-11-17T01:35:09.040Z,8.77
2022-11-17T01:36:15.563Z,8.73
2022-11-17T01:37:19.981Z,8.73
2022-11-17T01:38:21.979Z,8.65
2022-11-17T01:39:26.508Z,8.68
2022-11-17T01:40:28.077Z,8.66
2022-11-17T01:41:29.728Z,8.65
2022-11-17T01:42:31.596Z,8.65
2022-11-17T01:43:52.961Z,8.55
2022-11-17T01:45:16.069Z,8.59
2022-11-17T01:46:26.788Z,8.65
2022-11-17T01:47:47.076Z,8.68
2022-11-17T01:48:48.673Z,8.69
2022-11-17T01:49:51.231Z,8.62
2022-11-17T01:50:52.793Z,8.61
2022-11-17T01:52:00.686Z,8.59
2022-11-17T01:53:07.149Z,8.61
2022-11-17T01:54:08.845Z,8.56
2022-11-17T01:55:10.725Z,8.62
2022-11-17T01:56:15.374Z,8.61
2022-11-17T01:57:23.159Z,8.52
2022-11-17T01:58:30.051Z,8.55
2022-11-17T01:59:42.693Z,8.51
2022-11-17T02:00:44.306Z,8.46
2022-11-17T02:01:58.517Z,8.45
2022-11-17T02:03:00.126Z,8.45
2022-11-17T02:04:01.672Z,8.44
2022-11-17T02:05:06.037Z,8.45
2022-11-17T02:06:34.405Z,8.45
2022-11-17T02:07:37.878Z,8.40
2022-11-17T02:08:40.318Z,8.41
2022-11-17T02:09:41.898Z,8.42
2022-11-17T02:10:48.579Z,8.44
2022-11-17T02:11:53.035Z,8.44
2022-11-17T02:12:55.173Z,8.37
2022-11-17T02:13:56.758Z,8.34
2022-11-17T02:14:58.276Z,8.35
2022-11-17T02:15:59.830Z,8.31
2022-11-17T02:17:10.088Z,8.32
2022-11-17T02:18:15.950Z,8.37
2022-11-17T02:19:17.594Z,8.31
2022-11-17T02:20:50.760Z,8.34
2022-11-17T02:22:10.207Z,8.37
2022-11-17T02:23:30.262Z,8.34
2022-11-17T02:24:48.028Z,8.37
2022-11-17T02:26:15.365Z,8.34
2022-11-17T02:28:04.183Z,8.32
2022-11-17T02:29:33.317Z,8.31
2022-11-17T02:31:16.908Z,8.34
2022-11-17T02:32:41.657Z,8.24
2022-11-17T02:33:58.385Z,8.24
2022-11-17T02:35:05.237Z,8.18
2022-11-17T02:36:08.955Z,8.15
2022-11-17T02:37:18.880Z,8.18
2022-11-17T02:38:38.767Z,8.17
2022-11-17T02:40:08.669Z,8.18
2022-11-17T02:41:22.991Z,8.14
2022-11-17T02:42:50.874Z,8.12
2022-11-17T02:44:20.561Z,8.14
2022-11-17T02:45:24.011Z,8.15
2022-11-17T02:46:25.558Z,8.08
2022-11-17T02:47:31.659Z,8.02
2022-11-17T02:48:35.774Z,8.04
2022-11-17T02:49:39.139Z,8.05
2022-11-17T02:50:40.745Z,8.02
2022-11-17T02:51:42.602Z,7.98
2022-11-17T02:52:44.158Z,8.01
2022-11-17T02:53:45.702Z,8.01
2022-11-17T02:54:47.259Z,8.01
2022-11-17T02:55:52.571Z,7.98
2022-11-17T02:56:54.201Z,7.97
2022-11-17T02:57:55.797Z,8.01
2022-11-17T02:58:59.525Z,8.00
2022-11-17T03:00:23.249Z,7.97
2022-11-17T03:02:02.144Z,8.05
2022-11-17T03:03:36.178Z,8.04
2022-11-17T03:04:49.772Z,8.04
2022-11-17T03:05:59.467Z,8.08
2022-11-17T03:07:24.532Z,8.07
2022-11-17T03:08:33.345Z,8.11
2022-11-17T03:10:01.231Z,8.11
2022-11-17T03:11:04.171Z,8.12
2022-11-17T03:12:10.294Z,8.17
2022-11-17T03:13:19.174Z,8.15
2022-11-17T03:14:26.464Z,8.21
2022-11-17T03:15:58.543Z,8.22
2022-11-17T03:17:07.188Z,8.22
2022-11-17T03:18:31.747Z,8.25
2022-11-17T03:19:38.159Z,8.27
2022-11-17T03:20:46.559Z,8.21
2022-11-17T03:22:08.236Z,8.12
2022-11-17T03:23:19.741Z,8.20
2022-11-17T03:24:22.103Z,8.17
2022-11-17T03:25:23.666Z,8.18
2022-11-17T03:26:29.139Z,8.14
2022-11-17T03:27:42.665Z,8.21
2022-11-17T03:28:44.219Z,8.20
2022-11-17T03:29:48.803Z,8.21
2022-11-17T03:30:50.371Z,8.24
2022-11-17T03:31:53.602Z,8.21
2022-11-17T03:32:58.785Z,8.21
2022-11-17T03:34:01.398Z,8.28
2022-11-17T03:35:08.785Z,8.28
2022-11-17T03:36:14.850Z,8.24
2022-11-17T03:37:17.238Z,8.32
2022-11-17T03:38:19.812Z,8.25
2022-11-17T03:39:32.945Z,8.27
2022-11-17T03:40:34.529Z,8.24
2022-11-17T03:41:38.194Z,8.25
2022-11-17T03:42:42.266Z,8.27
2022-11-17T03:43:43.799Z,8.21
2022-11-17T03:44:47.976Z,8.20
2022-11-17T03:45:50.548Z,8.20
2022-11-17T03:48:19.785Z,8.27
2022-11-17T03:49:33.708Z,8.28
2022-11-17T03:50:37.193Z,8.24
2022-11-17T03:51:38.775Z,8.21
2022-11-17T03:52:41.458Z,8.21
2022-11-17T03:53:43.010Z,8.28
2022-11-17T03:54:44.568Z,8.25
2022-11-17T03:55:54.768Z,8.30
2022-11-17T03:57:07.438Z,8.28
2022-11-17T03:58:11.915Z,8.24
2022-11-17T03:59:18.787Z,8.25
2022-11-17T04:00:20.376Z,8.27
2022-11-17T04:01:22.053Z,8.27
2022-11-17T04:02:24.082Z,8.27
2022-11-17T04:03:32.186Z,8.30
2022-11-17T04:04:53.876Z,8.31
2022-11-17T04:05:55.427Z,8.30
2022-11-17T04:06:57.020Z,8.30
2022-11-17T04:07:58.655Z,8.30
2022-11-17T04:09:00.347Z,8.31
2022-11-17T04:10:02.174Z,8.30
2022-11-17T04:11:22.150Z,8.31
2022-11-17T04:12:41.844Z,8.32
2022-11-17T04:14:01.703Z,8.34
2022-11-17T04:15:21.810Z,8.22
2022-11-17T04:16:23.526Z,8.28
2022-11-17T04:17:25.084Z,8.28
2022-11-17T04:18:27.162Z,8.32
2022-11-17T04:19:28.845Z,8.32
2022-11-17T04:20:36.026Z,8.30
2022-11-17T04:21:37.593Z,8.32
2022-11-17T04:22:39.137Z,8.27
2022-11-17T04:23:40.750Z,8.21
2022-11-17T04:24:42.350Z,8.18
2022-11-17T04:26:06.765Z,8.18
2022-11-17T04:27:26.552Z,8.20
2022-11-17T04:28:37.414Z,8.15
2022-11-17T04:29:38.975Z,8.21
2022-11-17T04:30:40.709Z,8.24
2022-11-17T04:31:42.255Z,8.22
2022-11-17T04:32:43.831Z,8.27
2022-11-17T04:33:49.076Z,8.25
2022-11-17T04:34:50.645Z,8.30
2022-11-17T04:35:52.215Z,8.34
2022-11-17T04:36:53.988Z,8.35
2022-11-17T04:37:56.804Z,8.28
2022-11-17T04:38:59.282Z,8.28
2022-11-17T04:40:00.965Z,8.30
2022-11-17T04:41:26.298Z,8.32
2022-11-17T04:42:28.802Z,8.31
2022-11-17T04:43:30.446Z,8.32
2022-11-17T04:44:32.545Z,8.37
2022-11-17T04:45:34.373Z,8.38
2022-11-17T04:46:36.603Z,8.42
2022-11-17T04:47:38.170Z,8.35
2022-11-17T04:48:39.714Z,8.35
2022-11-17T04:49:41.431Z,8.35
2022-11-17T04:50:42.969Z,8.34
2022-11-17T04:51:44.787Z,8.31
2022-11-17T04:52:46.446Z,8.31
2022-11-17T04:53:48.137Z,8.32
2022-11-17T04:54:49.768Z,8.34
2022-11-17T04:55:51.365Z,8.35
2022-11-17T04:56:53.368Z,8.37
2022-11-17T04:57:54.919Z,8.35
2022-11-17T04:58:56.666Z,8.30
2022-11-17T04:59:58.314Z,8.35
2022-11-17T05:01:15.891Z,8.35
2022-11-17T05:02:17.463Z,8.37
2022-11-17T05:03:19.055Z,8.37
2022-11-17T05:04:39.444Z,8.34
2022-11-17T05:05:41.067Z,8.30
2022-11-17T05:06:44.184Z,8.30
2022-11-17T05:07:45.744Z,8.27
2022-11-17T05:08:47.355Z,8.24
2022-11-17T05:09:48.952Z,8.25
2022-11-17T05:11:09.106Z,8.30
2022-11-17T05:12:29.370Z,8.25
2022-11-17T05:13:30.954Z,8.22
2022-11-17T05:14:32.513Z,8.27
2022-11-17T05:15:52.920Z,8.28
2022-11-17T05:17:10.095Z,8.31
2022-11-17T05:18:12.963Z,8.31
2022-11-17T05:19:16.651Z,8.31
2022-11-17T05:20:18.478Z,8.27
2022-11-17T05:21:20.065Z,8.32
2022-11-17T05:22:41.034Z,8.32
2022-11-17T05:23:54.221Z,8.27
2022-11-17T05:24:55.860Z,8.27
2022-11-17T05:25:57.470Z,8.27
2022-11-17T05:26:59.064Z,8.27
2022-11-17T05:28:00.617Z,8.27
2022-11-17T05:29:03.136Z,8.27
2022-11-17T05:30:06.079Z,8.21
2022-11-17T05:31:07.713Z,8.24
2022-11-17T05:32:09.257Z,8.27
2022-11-17T05:33:10.805Z,8.25
2022-11-17T05:34:13.501Z,8.18
2022-11-17T05:35:15.240Z,8.21
2022-11-17T05:36:17.173Z,8.22
2022-11-17T05:37:18.769Z,8.22
2022-11-17T05:38:20.593Z,8.25
2022-11-17T05:39:22.202Z,8.22
2022-11-17T05:40:23.736Z,8.18
2022-11-17T05:41:25.832Z,8.17
2022-11-17T05:42:27.384Z,8.18
2022-11-17T05:43:28.977Z,8.21
2022-11-17T05:44:30.614Z,8.20
2022-11-17T05:45:32.143Z,8.15
2022-11-17T05:46:33.737Z,8.17
2022-11-17T05:47:35.277Z,8.17
2022-11-17T05:48:36.893Z,8.08
2022-11-17T05:49:38.540Z,8.10
2022-11-17T05:50:40.147Z,8.10
2022-11-17T05:51:41.710Z,8.11
2022-11-17T05:52:43.262Z,8.04
2022-11-17T05:53:44.803Z,8.11
2022-11-17T05:54:46.461Z,8.10
2022-11-17T05:55:48.260Z,8.11
2022-11-17T05:56:54.758Z,8.14
2022-11-17T05:57:56.740Z,8.07
2022-11-17T05:59:27.289Z,8.11
2022-11-17T06:00:29.552Z,8.12
2022-11-17T06:01:31.190Z,8.15
2022-11-17T06:02:36.685Z,8.12
2022-11-17T06:03:42.094Z,8.10
2022-11-17T06:04:43.930Z,8.12
2022-11-17T06:05:45.503Z,8.15
2022-11-17T06:06:47.102Z,8.10
2022-11-17T06:07:48.778Z,8.10
2022-11-17T06:08:50.609Z,8.08
2022-11-17T06:09:52.223Z,8.14
2022-11-17T06:10:53.762Z,8.10
2022-11-17T06:11:56.187Z,8.11
2022-11-17T06:13:00.390Z,8.10
2022-11-17T06:14:01.984Z,8.04
2022-11-17T06:15:03.720Z,7.93
2022-11-17T06:16:06.756Z,7.94
2022-11-17T06:17:22.228Z,7.94
2022-11-17T06:18:26.777Z,7.93
2022-11-17T06:19:35.117Z,7.95
2022-11-17T06:20:39.611Z,8.01
2022-11-17T06:22:10.114Z,8.00
2022-11-17T06:23:04.636Z,8.02
2022-11-17T06:24:06.391Z,8.02
2022-11-17T06:25:08.595Z,7.98
2022-11-17T06:26:10.214Z,8.00
2022-11-17T06:27:12.339Z,8.00
2022-11-17T06:28:15.148Z,8.02
2022-11-17T06:29:16.702Z,8.00
2022-11-17T06:30:18.624Z,8.04
2022-11-17T06:31:20.207Z,7.94
2022-11-17T06:32:21.766Z,7.95
2022-11-17T06:33:23.360Z,7.95
2022-11-17T06:34:25.856Z,8.02
2022-11-17T06:35:28.961Z,8.00
2022-11-17T06:36:30.563Z,7.97
2022-11-17T06:37:32.124Z,8.08
2022-11-17T06:38:35.989Z,8.11
2022-11-17T06:39:37.648Z,8.14
2022-11-17T06:40:39.241Z,8.14
2022-11-17T06:41:40.973Z,8.18
2022-11-17T06:43:01.190Z,8.15
2022-11-17T06:44:02.764Z,8.21
2022-11-17T06:45:04.630Z,8.18
2022-11-17T06:46:06.199Z,8.12
2022-11-17T06:47:07.809Z,8.18
2022-11-17T06:48:09.770Z,8.20
2022-11-17T06:49:11.373Z,8.28
2022-11-17T06:50:12.922Z,8.27
2022-11-17T06:51:14.476Z,8.35
2022-11-17T06:52:16.366Z,8.40
2022-11-17T06:53:17.982Z,8.42
2022-11-17T06:54:19.535Z,8.46
2022-11-17T06:55:21.081Z,8.49
2022-11-17T06:56:23.936Z,8.51
2022-11-17T06:57:25.541Z,8.52
2022-11-17T06:58:27.832Z,8.58
2022-11-17T06:59:29.440Z,8.62
2022-11-17T07:00:31.176Z,8.65
2022-11-17T07:01:32.898Z,8.66
2022-11-17T07:02:34.489Z,8.72
2022-11-17T07:03:37.035Z,8.68
2022-11-17T07:04:38.768Z,8.71
2022-11-17T07:05:40.578Z,8.69
2022-11-17T07:06:42.262Z,8.75
2022-11-17T07:07:43.845Z,8.72
2022-11-17T07:08:45.688Z,8.72
2022-11-17T07:09:47.241Z,8.80
2022-11-17T07:10:54.752Z,8.87
2022-11-17T07:11:57.537Z,8.89
2022-11-17T07:12:59.286Z,8.90
2022-11-17T07:14:00.895Z,8.90
2022-11-17T07:15:02.454Z,8.87
2022-11-17T07:16:11.155Z,8.89
2022-11-17T07:17:12.783Z,8.93
2022-11-17T07:18:14.348Z,8.97
2022-11-17T07:19:15.926Z,9.02
2022-11-17T07:20:17.726Z,9.03
2022-11-17T07:21:19.327Z,8.95
2022-11-17T07:22:21.397Z,9.09
2022-11-17T07:23:22.932Z,9.13
2022-11-17T07:24:24.612Z,9.13
2022-11-17T07:25:26.175Z,9.16
2022-11-17T07:26:27.753Z,9.20
2022-11-17T07:27:30.608Z,9.26
2022-11-17T07:28:32.882Z,9.20
2022-11-17T07:29:34.641Z,9.28
2022-11-17T07:30:36.332Z,9.22
2022-11-17T07:31:37.899Z,9.16
2022-11-17T07:32:39.509Z,9.17
2022-11-17T07:33:41.078Z,9.22
2022-11-17T07:34:42.620Z,9.16
2022-11-17T07:35:44.184Z,9.09
2022-11-17T07:36:45.860Z,9.13
2022-11-17T07:37:47.422Z,9.16
2022-11-17T07:38:49.077Z,9.20
2022-11-17T07:39:50.628Z,9.27
2022-11-17T07:40:52.207Z,9.22
2022-11-17T07:41:53.846Z,9.24
2022-11-17T07:42:55.889Z,9.24
2022-11-17T07:43:58.491Z,9.26
2022-11-17T07:45:00.134Z,9.10
2022-11-17T07:46:11.575Z,9.14
2022-11-17T07:47:13.127Z,9.20
2022-11-17T07:48:14.718Z,9.19
2022-11-17T07:49:16.293Z,9.19
2022-11-17T07:50:18.107Z,9.28
2022-11-17T07:51:19.654Z,9.19
2022-11-17T07:52:21.236Z,9.30
2022-11-17T07:53:22.792Z,9.31
2022-11-17T07:54:24.473Z,9.36
2022-11-17T07:55:26.046Z,9.40
2022-11-17T07:56:27.650Z,9.37
2022-11-17T07:57:31.169Z,9.43
2022-11-17T07:58:32.976Z,9.41
2022-11-17T07:59:34.903Z,9.38
2022-11-17T08:00:36.836Z,9.33
2022-11-17T08:01:38.693Z,9.31
2022-11-17T08:02:40.930Z,9.28
2022-11-17T08:03:45.523Z,9.37
2022-11-17T08:04:47.145Z,9.34
2022-11-17T08:05:48.687Z,9.37
2022-11-17T08:06:50.264Z,9.41
2022-11-17T08:07:56.383Z,9.43
2022-11-17T08:08:57.981Z,9.48
2022-11-17T08:09:59.534Z,9.55
2022-11-17T08:11:06.039Z,9.61
2022-11-17T08:12:08.828Z,9.62
2022-11-17T08:13:11.445Z,9.64
2022-11-17T08:14:13.042Z,9.71
2022-11-17T08:15:14.628Z,9.59
2022-11-17T08:16:16.271Z,9.65
2022-11-17T08:17:17.915Z,9.62
2022-11-17T08:18:19.519Z,9.51
2022-11-17T08:19:21.159Z,9.37
2022-11-17T08:20:22.875Z,9.50
2022-11-17T08:21:24.613Z,9.52
2022-11-17T08:22:26.167Z,9.58
2022-11-17T08:23:27.783Z,9.61
2022-11-17T08:24:29.435Z,9.64
2022-11-17T08:25:31.019Z,9.67
2022-11-17T08:26:32.599Z,9.65
2022-11-17T08:27:35.130Z,9.70
2022-11-17T08:28:37.302Z,9.71
2022-11-17T08:29:39.066Z,9.75
2022-11-17T08:30:41.032Z,9.71
2022-11-17T08:31:46.153Z,9.75
2022-11-17T08:32:49.303Z,9.75
2022-11-17T08:33:51.259Z,9.73
2022-11-17T08:34:52.843Z,9.70
2022-11-17T08:36:00.964Z,9.67
2022-11-17T08:37:02.556Z,9.68
2022-11-17T08:38:04.126Z,9.68
2022-11-17T08:39:05.993Z,9.74
2022-11-17T08:40:08.222Z,9.74
2022-11-17T08:41:10.114Z,9.71
2022-11-17T08:42:11.660Z,9.79
2022-11-17T08:43:13.208Z,9.84
2022-11-17T08:44:14.766Z,9.85
2022-11-17T08:45:16.388Z,9.82
2022-11-17T08:46:17.980Z,9.82
2022-11-17T08:47:19.538Z,9.85
2022-11-17T08:48:21.200Z,9.85
2022-11-17T08:49:22.763Z,9.89
2022-11-17T08:50:24.380Z,9.91
2022-11-17T08:51:27.251Z,9.78
2022-11-17T08:52:28.944Z,9.82
2022-11-17T08:53:30.544Z,9.85
2022-11-17T08:54:32.627Z,9.85
2022-11-17T08:55:40.965Z,9.92
2022-11-17T08:56:43.050Z,10.01
2022-11-17T08:57:44.774Z,10.03
2022-11-17T08:58:46.381Z,9.95
2022-11-17T08:59:48.710Z,10.03
2022-11-17T09:00:50.444Z,10.03
2022-11-17T09:01:52.654Z,10.05
2022-11-17T09:02:54.274Z,10.01
2022-11-17T09:03:55.826Z,10.03
2022-11-17T09:04:57.374Z,10.02
2022-11-17T09:06:00.111Z,10.15
2022-11-17T09:07:01.722Z,10.10
2022-11-17T09:08:22.735Z,10.20
2022-11-17T09:09:24.951Z,10.29
2022-11-17T09:10:26.533Z,10.35
2022-11-17T09:11:28.217Z,10.39
2022-11-17T09:12:29.768Z,10.42
2022-11-17T09:13:31.560Z,10.49
2022-11-17T09:14:33.189Z,10.48
2022-11-17T09:15:34.836Z,10.56
2022-11-17T09:16:36.779Z,10.55
2022-11-17T09:17:38.351Z,10.56
2022-11-17T09:18:40.836Z,10.55
2022-11-17T09:19:42.918Z,10.60
2022-11-17T09:20:45.978Z,10.61
2022-11-17T09:21:47.758Z,10.66
2022-11-17T09:22:49.410Z,10.70
2022-11-17T09:23:50.996Z,10.64
2022-11-17T09:24:52.547Z,10.69
2022-11-17T09:25:54.095Z,10.66
2022-11-17T09:26:57.509Z,10.66
2022-11-17T09:27:59.189Z,10.66
2022-11-17T09:29:02.179Z,10.70
2022-11-17T09:30:03.994Z,10.70
2022-11-17T09:31:07.536Z,10.73
2022-11-17T09:32:09.190Z,10.80
2022-11-17T09:33:11.145Z,10.80
2022-11-17T09:34:12.901Z,10.90
2022-11-17T09:35:14.781Z,10.91
2022-11-17T09:36:16.602Z,10.80
2022-11-17T09:37:18.746Z,10.85
2022-11-17T09:38:20.351Z,10.91
2022-11-17T09:39:22.137Z,10.84
2022-11-17T09:40:23.942Z,10.89
2022-11-17T09:41:28.136Z,10.84
2022-11-17T09:42:30.983Z,10.85
2022-11-17T09:43:34.361Z,10.84
2022-11-17T09:44:40.334Z,10.89
2022-11-17T09:45:42.255Z,10.94
2022-11-17T09:46:54.325Z,10.90
2022-11-17T09:48:38.907Z,10.89
2022-11-17T09:49:53.705Z,11.01
2022-11-17T09:50:59.776Z,11.06
2022-11-17T09:52:06.068Z,11.10
2022-11-17T09:53:23.469Z,11.18
2022-11-17T09:54:37.107Z,11.27
2022-11-17T09:55:40.109Z,11.21
2022-11-17T09:56:41.723Z,11.20
2022-11-17T09:57:45.097Z,11.25
2022-11-17T09:58:55.337Z,11.27
2022-11-17T10:00:04.336Z,11.30
2022-11-17T10:01:06.182Z,11.32
2022-11-17T10:02:10.288Z,11.35
2022-11-17T10:03:22.043Z,11.25
2022-11-17T10:04:23.586Z,11.35
2022-11-17T10:05:30.496Z,11.42
2022-11-17T10:06:32.186Z,11.46
2022-11-17T10:07:33.794Z,11.42
2022-11-17T10:09:04.953Z,11.48
2022-11-17T10:10:06.772Z,11.46
2022-11-17T10:11:31.671Z,11.55
2022-11-17T10:12:45.853Z,11.57
2022-11-17T10:13:49.672Z,11.62
2022-11-17T10:14:51.303Z,11.66
2022-11-17T10:16:04.089Z,11.68
2022-11-17T10:17:05.655Z,11.71
2022-11-17T10:18:16.565Z,11.72
2022-11-17T10:19:20.792Z,11.72
2022-11-17T10:20:22.468Z,11.78
2022-11-17T10:21:24.038Z,11.81
2022-11-17T10:22:35.743Z,11.83
2022-11-17T10:23:46.256Z,11.82
2022-11-17T10:24:55.521Z,11.89
2022-11-17T10:25:57.837Z,11.96
2022-11-17T10:26:59.401Z,12.00
2022-11-17T10:28:01.036Z,12.05
2022-11-17T10:29:10.079Z,11.97
2022-11-17T10:30:14.335Z,11.99
2022-11-17T10:31:17.321Z,11.96
2022-11-17T10:32:19.330Z,12.00
2022-11-17T10:33:45.030Z,12.02
2022-11-17T10:34:47.350Z,11.99
2022-11-17T10:35:54.561Z,12.10
2022-11-17T10:36:56.127Z,12.06
2022-11-17T10:37:58.819Z,12.05
2022-11-17T10:39:01.626Z,12.10
2022-11-17T10:40:18.247Z,12.06
2022-11-17T10:41:38.873Z,12.09
2022-11-17T10:42:41.258Z,12.12
2022-11-17T10:43:42.944Z,12.10
2022-11-17T10:44:44.624Z,12.15
2022-11-17T10:45:50.302Z,12.17
2022-11-17T10:47:02.279Z,12.13
2022-11-17T10:48:09.713Z,12.15
2022-11-17T10:49:24.011Z,12.13
2022-11-17T10:50:27.540Z,12.12
2022-11-17T10:51:30.226Z,12.19
2022-11-17T10:52:31.795Z,12.15
2022-11-17T10:53:46.484Z,12.07
2022-11-17T10:54:49.868Z,12.06
2022-11-17T10:55:59.922Z,12.12
2022-11-17T10:57:01.617Z,12.07
2022-11-17T10:58:21.785Z,12.13
2022-11-17T10:59:31.228Z,12.22
2022-11-17T11:00:34.853Z,12.20
2022-11-17T11:01:38.018Z,12.19
2022-11-17T11:02:39.679Z,12.22
2022-11-17T11:03:48.618Z,12.26
2022-11-17T11:04:50.364Z,12.29
2022-11-17T11:06:03.027Z,12.29
2022-11-17T11:07:26.244Z,12.29
2022-11-17T11:08:54.359Z,12.27
2022-11-17T11:10:02.921Z,12.27
2022-11-17T11:11:08.670Z,12.32
2022-11-17T11:12:12.255Z,12.33
2022-11-17T11:13:30.071Z,12.26
2022-11-17T11:14:36.348Z,12.34
2022-11-17T11:15:38.218Z,12.33
2022-11-17T11:16:45.054Z,12.33
2022-11-17T11:17:49.949Z,12.30
2022-11-17T11:18:51.514Z,12.30
2022-11-17T11:19:53.138Z,12.27
2022-11-17T11:21:08.053Z,12.19
2022-11-17T11:22:31.303Z,12.17
2022-11-17T11:23:37.767Z,12.13
2022-11-17T11:24:45.332Z,12.10
2022-11-17T11:25:51.633Z,11.83
2022-11-17T11:26:58.894Z,11.96
2022-11-17T11:28:40.051Z,12.03
2022-11-17T11:29:55.292Z,11.99
2022-11-17T11:31:09.180Z,12.00
2022-11-17T11:32:36.922Z,12.03
2022-11-17T11:33:53.992Z,12.09
2022-11-17T11:35:18.812Z,12.05
2022-11-17T11:36:40.202Z,12.12
2022-11-17T11:37:54.740Z,12.16
2022-11-17T11:39:03.713Z,12.12
2022-11-17T11:40:29.390Z,12.23
2022-11-17T11:41:44.315Z,12.26
2022-11-17T11:42:54.615Z,12.23
2022-11-17T11:43:59.724Z,12.25
2022-11-17T11:45:03.897Z,12.23
2022-11-17T11:46:11.199Z,12.20
2022-11-17T11:47:29.919Z,12.23
2022-11-17T11:48:33.822Z,12.23
2022-11-17T11:49:54.117Z,12.23
2022-11-17T11:50:59.316Z,12.19
2022-11-17T11:52:01.054Z,12.19
2022-11-17T11:53:26.762Z,12.27
2022-11-17T11:54:39.409Z,12.30
2022-11-17T11:55:41.832Z,12.40
2022-11-17T11:56:44.496Z,12.44
2022-11-17T11:57:58.904Z,12.50
2022-11-17T11:59:07.626Z,12.48
2022-11-17T12:00:16.503Z,12.51
2022-11-17T12:01:18.838Z,12.58
2022-11-17T12:02:41.563Z,12.63
2022-11-17T12:03:54.688Z,12.63
2022-11-17T12:05:23.644Z,12.67
2022-11-17T12:06:43.662Z,12.71
2022-11-17T12:07:45.243Z,12.69
2022-11-17T12:08:51.880Z,12.69
2022-11-17T12:09:53.370Z,12.67
2022-11-17T12:10:59.378Z,12.56
2022-11-17T12:12:01.008Z,12.58
2022-11-17T12:13:03.242Z,12.48
2022-11-17T12:14:04.898Z,12.47
2022-11-17T12:15:13.070Z,12.46
2022-11-17T12:16:28.001Z,12.43
2022-11-17T12:17:29.601Z,12.46
2022-11-17T12:18:31.563Z,12.46
2022-11-17T12:19:42.528Z,12.43
2022-11-17T12:21:01.277Z,12.47
2022-11-17T12:22:02.849Z,12.40
2022-11-17T12:23:42.664Z,12.36
2022-11-17T12:24:44.304Z,12.27
2022-11-17T12:25:52.303Z,12.22
2022-11-17T12:27:25.642Z,12.15
2022-11-17T12:28:38.157Z,12.12
2022-11-17T12:29:46.228Z,12.10
2022-11-17T12:30:48.504Z,12.13
2022-11-17T12:31:50.600Z,12.13
2022-11-17T12:32:52.836Z,12.13
2022-11-17T12:33:54.327Z,12.22
2022-11-17T12:35:21.705Z,12.25
2022-11-17T12:36:31.580Z,12.27
2022-11-17T12:37:33.525Z,12.26
2022-11-17T12:38:39.914Z,12.29
2022-11-17T12:40:08.941Z,12.26
2022-11-17T12:41:10.582Z,12.32
2022-11-17T12:42:12.122Z,12.30
2022-11-17T12:43:17.888Z,12.29
2022-11-17T12:44:37.684Z,12.30
2022-11-17T12:45:57.934Z,12.32
2022-11-17T12:47:21.612Z,12.27
2022-11-17T12:48:34.023Z,12.29
2022-11-17T12:49:59.972Z,12.27
2022-11-17T12:51:27.352Z,12.27
2022-11-17T12:52:53.607Z,12.25
2022-11-17T12:54:15.840Z,12.22
2022-11-17T12:55:19.590Z,12.16
2022-11-17T12:56:30.858Z,12.16
2022-11-17T12:57:32.673Z,12.12
2022-11-17T12:58:40.676Z,12.07
2022-11-17T12:59:47.147Z,12.10
2022-11-17T13:01:12.148Z,12.10
2022-11-17T13:02:19.307Z,12.10
2022-11-17T13:03:45.194Z,12.10
2022-11-17T13:04:50.090Z,12.07
2022-11-17T13:06:34.359Z,12.03
2022-11-17T13:07:32.586Z,11.99
2022-11-17T13:08:34.413Z,11.93
2022-11-17T13:09:36.490Z,11.90
2022-11-17T13:10:38.073Z,11.87
2022-11-17T13:11:39.681Z,11.85
2022-11-17T13:12:41.429Z,11.85
2022-11-17T13:13:46.951Z,11.85
2022-11-17T13:14:56.399Z,11.86
2022-11-17T13:16:01.718Z,11.78
2022-11-17T13:17:03.345Z,11.81
2022-11-17T13:18:16.433Z,11.79
2022-11-17T13:19:36.632Z,11.75
2022-11-17T13:20:38.789Z,11.68
2022-11-17T13:21:40.341Z,11.61
2022-11-17T13:22:42.350Z,11.61
2022-11-17T13:23:44.383Z,11.58
2022-11-17T13:24:47.769Z,11.57
2022-11-17T13:25:50.223Z,11.52
2022-11-17T13:26:58.762Z,11.51
2022-11-17T13:28:04.744Z,11.48
2022-11-17T13:29:18.860Z,11.48
2022-11-17T13:30:25.009Z,11.45
2022-11-17T13:31:26.571Z,11.45
2022-11-17T13:32:28.712Z,11.46
2022-11-17T13:33:33.271Z,11.50
2022-11-17T13:34:44.544Z,11.52
2022-11-17T13:35:46.082Z,11.55
2022-11-17T13:36:58.326Z,11.57
2022-11-17T13:38:19.846Z,11.58
2022-11-17T13:39:26.857Z,11.54
2022-11-17T13:40:29.015Z,11.51
2022-11-17T13:41:39.673Z,11.54
2022-11-17T13:42:41.261Z,11.52
2022-11-17T13:43:42.939Z,11.55
2022-11-17T13:44:44.501Z,11.54
2022-11-17T13:45:47.334Z,11.54
2022-11-17T13:46:48.910Z,11.57
2022-11-17T13:47:50.666Z,11.58
2022-11-17T13:48:52.401Z,11.57
2022-11-17T13:49:53.952Z,11.55
2022-11-17T13:50:55.534Z,11.59
2022-11-17T13:51:57.120Z,11.62
2022-11-17T13:53:02.149Z,11.61
2022-11-17T13:54:17.777Z,11.62
2022-11-17T13:55:20.310Z,11.65
2022-11-17T13:56:23.927Z,11.62
2022-11-17T13:57:27.482Z,11.61
2022-11-17T13:58:31.829Z,11.59
2022-11-17T13:59:37.579Z,11.58
2022-11-17T14:00:39.118Z,11.59
2022-11-17T14:01:40.780Z,11.61
2022-11-17T14:02:55.004Z,11.61
2022-11-17T14:04:22.594Z,11.65
2022-11-17T14:05:26.197Z,11.66
2022-11-17T14:06:27.795Z,11.69
2022-11-17T14:07:30.148Z,11.68
2022-11-17T14:08:32.263Z,11.71
2022-11-17T14:09:34.637Z,11.69
2022-11-17T14:10:37.479Z,11.68
2022-11-17T14:11:41.172Z,11.64
2022-11-17T14:12:42.841Z,11.64
2022-11-17T14:13:46.071Z,11.61
2022-11-17T14:14:47.685Z,11.58
2022-11-17T14:15:57.002Z,11.57
2022-11-17T14:16:59.301Z,11.52
2022-11-17T14:18:03.015Z,11.50
2022-11-17T14:19:16.756Z,11.45
2022-11-17T14:20:24.561Z,11.44
2022-11-17T14:21:26.169Z,11.42
2022-11-17T14:22:31.713Z,11.38
2022-11-17T14:23:34.064Z,11.36
2022-11-17T14:24:36.164Z,11.38
2022-11-17T14:25:39.238Z,11.35
2022-11-17T14:26:42.422Z,11.36
2022-11-17T14:27:45.289Z,11.35
2022-11-17T14:28:49.439Z,11.38
2022-11-17T14:29:51.001Z,11.36